Terminal Aerodrome Forecast
Issued by NWS

Home | Current Version | Previous Version | Text Only | Print | Product List | Glossary On
Versions: 1 2 3 4 5 6 7 8 9 10 11 12 13 14 15 16 17 18 19
000
FTUS46 KSEW 200300 AAA
TAFBLI
TAF AMD
KBLI 200342Z 2004/2024 17012G22KT P6SM -RA BKN050 OVC100
     FM200700 17010KT 4SM -RA BR OVC025
     FM201800 13006KT P6SM -SHRA BKN030 OVC050=

USA.gov is the U.S. government's official web portal to all federal, state and local government web resources and services.